logo tempoitalia

Diretta Meteo Luxeuil, Franciasabato 21 maggio ore 18:30

Mappa
Sereno 25 °C Sereno 24 Ore: T.min 9 T.max 28
Ponente Nord/NOvest Km/h 7.4 Punto di rugiada: 6 °C Umidità: 29% Visibilità: 10 Km
Il sole sorge alle: 05:47 Il sole tramonta alle: 21:14
21 Maggio 2022 18:30 tempo osservato: Sereno Sereno 25 29 1020 vento: Nord N/NO 7.4
21 Maggio 2022 18:00 tempo osservato: Sereno Sereno 25 27 1020 vento: Nord N 5.5
21 Maggio 2022 17:30 tempo osservato: Sereno Sereno 25 29 1020 vento: Nord NO 7.4
21 Maggio 2022 17:00 tempo osservato: Sereno Sereno 25 27 1021 vento: Nord N 7.4
21 Maggio 2022 16:30 tempo osservato: Sereno Sereno 24 29 1021 vento: Nord N/NO 11.1
21 Maggio 2022 16:00 tempo osservato: Sereno Sereno 24 29 1021 vento: Nord N/NO 9.3
21 Maggio 2022 15:30 tempo osservato: Sereno Sereno 25 31 1022 vento: Nord N 7.4
21 Maggio 2022 15:00 tempo osservato: Sereno Sereno 24 31 1022 vento: Nord NO 9.3
21 Maggio 2022 14:30 tempo osservato: Sereno Sereno 24 31 1022 vento: Nord O 11.1
21 Maggio 2022 14:00 tempo osservato: Sereno Sereno 23 35 1023 vento: Nord N 11.1
21 Maggio 2022 13:30 tempo osservato: Sereno Sereno 23 33 1023 vento: Nord N 3.7
21 Maggio 2022 13:00 tempo osservato: Sereno Sereno 23 33 1023 vento: Nord N 5.5
21 Maggio 2022 12:30 tempo osservato: Sereno Sereno 22 40 1023 vento: Nord NE 7.4
21 Maggio 2022 12:00 tempo osservato: Sereno Sereno 21 40 1023 vento: Nord N/NO 9.3
21 Maggio 2022 11:30 tempo osservato: Sereno Sereno 21 46 1023 vento: Nord N 5.5
21 Maggio 2022 11:00 tempo osservato: Sereno Sereno 20 45 1024 vento: Nord N 7.4
21 Maggio 2022 10:30 tempo osservato: Sereno Sereno 20 39 1024 vento: Nord N/NO 7.4
21 Maggio 2022 10:00 tempo osservato: Sereno Sereno 19 45 1024 vento: Nord N 5.5
21 Maggio 2022 09:30 tempo osservato: Sereno Sereno 18 55 1024 vento: Nord N 5.5
21 Maggio 2022 09:00 tempo osservato: Sereno Sereno 17 63 1024 vento: Nord N 1.8
21 Maggio 2022 08:30 tempo osservato: Sereno Sereno 15 72 1024 vento: Nord N 5.5
21 Maggio 2022 08:00 tempo osservato: Sereno Sereno 15 76 1025 vento: Nord N 3.7
21 Maggio 2022 07:30 tempo osservato: Sereno Sereno 13 81 1024 vento: Nord N 1.8
21 Maggio 2022 07:00 tempo osservato: Sereno Sereno 11 93 1024 vento: Nord N 5.5
21 Maggio 2022 06:30 tempo osservato: Sereno Sereno 9 100 1024 vento: Nord O/NO 7.4
21 Maggio 2022 06:00 tempo osservato: Sereno Sereno 10 93 1024 vento: Nord N 3.7
21 Maggio 2022 05:30 tempo osservato: Sereno Sereno 10 93 1024 vento: Nord N 3.7
21 Maggio 2022 05:00 tempo osservato: Sereno Sereno 13 76 1024 vento: Nord N 5.5
21 Maggio 2022 04:30 tempo osservato: Sereno Sereno 13 81 1024 vento: Nord N 5.5
21 Maggio 2022 04:00 tempo osservato: Sereno Sereno 14 76 1024 vento: Nord N/NO 7.4
21 Maggio 2022 03:30 tempo osservato: Poco Nuvoloso Poco Nuvoloso 15 72 1024 vento: Nord N 7.4
21 Maggio 2022 03:00 tempo osservato: Molto Nuvoloso Molto Nuvoloso 16 77 1024 vento: Nord N 7.4
21 Maggio 2022 02:30 tempo osservato: Nuvoloso Nuvoloso 16 82 1024 vento: Nord N/NO 7.4
21 Maggio 2022 02:00 tempo osservato: Molto Nuvoloso Molto Nuvoloso 17 77 1024 vento: Nord NO 9.3
21 Maggio 2022 01:30 tempo osservato: Poco Nuvoloso Poco Nuvoloso 17 77 1024 vento: Nord NO 9.3
21 Maggio 2022 01:00 tempo osservato: Molto Nuvoloso Molto Nuvoloso 19 72 1023 vento: Nord N 5.5
21 Maggio 2022 00:30 tempo osservato: Coperto Coperto 19 77 1023 vento: Nord O/NO 13
21 Maggio 2022 00:00 tempo osservato: Sereno Sereno 20 72 1022 vento: Nord O/NO 16.7
20 Maggio 2022 23:30 tempo osservato: Sereno Sereno 20 72 1022 vento: Nord NO 18.5
20 Maggio 2022 23:00 tempo osservato: Sereno Sereno 21 73 1022 vento: Nord N/NO 20.3
20 Maggio 2022 22:30 tempo osservato: Sereno Sereno 22 73 1021 vento: Nord NO 20.3
20 Maggio 2022 22:00 tempo osservato: Molto Nuvoloso Molto Nuvoloso 23 64 1020 vento: Nord O/NO 20.3
20 Maggio 2022 21:30 tempo osservato: Sereno Sereno 23 60 1020 vento: Nord O 7.4
20 Maggio 2022 21:00 tempo osservato: Sereno Sereno 23 60 1020 vento: Nord O 7.4
20 Maggio 2022 20:30 tempo osservato: Molto Nuvoloso Molto Nuvoloso 24 57 1019 vento: Nord O 13
20 Maggio 2022 20:00 tempo osservato: Sereno Sereno 27 39 1019 vento: Nord O 20.3
20 Maggio 2022 19:30 tempo osservato: Sereno Sereno 28 34 1018 vento: Nord SO 24
20 Maggio 2022 19:00 tempo osservato: Sereno Sereno 28 34 1018 vento: Nord SO 25.9